Time;durP1;ratioP1;P1;durP2;ratioP2;P2;SDS_P1;SDS_P2;PMS_P1;PMS_P2;Temp;Humidity;BMP_temperature;BMP_pressure;BME280_temperature;BME280_humidity;BME280_pressure;Samples;Min_cycle;Max_cycle;Signal;HPM_P1;HPM_P2
2023/10/24 00:01:02;;;;;;;;;;;;;;;10.29;100.00;95626.00;5104929;28;19935;-71
2023/10/24 00:03:28;;;;;;;;;;;;;;;10.29;100.00;95633.03;5105892;28;20013;-71
2023/10/24 00:05:54;;;;;;;;;;;;;;;10.29;100.00;95635.66;5106603;28;20172;-71
2023/10/24 00:08:19;;;;;;;;;;;;;;;10.30;100.00;95630.22;5106384;28;19936;-71
2023/10/24 00:10:45;;;;;;;;;;;;;;;10.30;100.00;95627.59;5105773;28;19941;-73
2023/10/24 00:13:12;;;;;;;;;;;;;;;10.29;100.00;95633.88;5106200;28;19956;-71
2023/10/24 00:15:37;;;;;;;;;;;;;;;10.27;100.00;95633.28;5105470;28;19962;-72
2023/10/24 00:18:03;;;;;;;;;;;;;;;10.25;100.00;95637.16;5106237;28;19950;-72
2023/10/24 00:20:29;;;;;;;;;;;;;;;10.25;100.00;95645.81;5105546;28;19937;-73
2023/10/24 00:22:55;;;;;;;;;;;;;;;10.23;100.00;95660.97;5105565;28;19933;-72
2023/10/24 00:25:21;;;;;;;;;;;;;;;10.21;100.00;95652.56;5106223;28;19933;-73
2023/10/24 00:27:46;;;;;;;;;;;;;;;10.20;100.00;95660.66;5105416;28;19936;-72
2023/10/24 00:30:12;;;;;;;;;;;;;;;10.19;100.00;95653.84;5105476;28;19994;-78
2023/10/24 00:32:38;;;;;;;;;;;;;;;10.18;100.00;95662.72;5105776;28;20018;-71
2023/10/24 00:35:04;;;;;;;;;;;;;;;10.14;100.00;95655.31;5105763;28;19949;-71
2023/10/24 00:37:30;;;;;;;;;;;;;;;10.13;100.00;95648.47;5105267;28;19937;-71
2023/10/24 00:39:56;;;;;;;;;;;;;;;10.13;100.00;95650.31;5105774;28;19933;-71
2023/10/24 00:42:21;;;;;;;;;;;;;;;10.12;100.00;95654.75;5105148;28;19943;-71
2023/10/24 00:44:47;;;;;;;;;;;;;;;10.11;100.00;95662.84;5105140;28;20212;-71
2023/10/24 00:47:14;;;;;;;;;;;;;;;10.11;100.00;95658.41;5105075;28;20006;-76
2023/10/24 00:49:40;;;;;;;;;;;;;;;10.09;100.00;95644.75;5105029;28;19940;-73
2023/10/24 00:52:06;;;;;;;;;;;;;;;10.09;100.00;95642.13;5103744;28;19963;-72
2023/10/24 00:54:33;;;;;;;;;;;;;;;10.09;100.00;95629.03;5104922;28;19977;-72
2023/10/24 00:56:59;;;;;;;;;;;;;;;10.09;100.00;95631.63;5104906;28;19934;-72
2023/10/24 00:59:26;;;;;;;;;;;;;;;10.09;100.00;95634.25;5104858;28;19972;-72
2023/10/24 01:01:52;;;;;;;;;;;;;;;10.09;100.00;95626.41;5104800;28;19930;-72
2023/10/24 01:04:19;;;;;;;;;;;;;;;10.09;100.00;95623.00;5105552;28;19956;-72
2023/10/24 01:06:45;;;;;;;;;;;;;;;10.10;100.00;95611.47;5104761;28;20116;-75
2023/10/24 01:09:10;;;;;;;;;;;;;;;10.12;100.00;95625.13;5104690;28;19931;-72
2023/10/24 01:11:36;;;;;;;;;;;;;;;10.12;100.00;95618.09;5104022;28;19932;-71
2023/10/24 01:14:02;;;;;;;;;;;;;;;10.13;100.00;95606.56;5104257;28;19949;-71
2023/10/24 01:16:28;;;;;;;;;;;;;;;10.13;100.00;95597.91;5104508;28;20260;-71
2023/10/24 01:18:54;;;;;;;;;;;;;;;10.15;100.00;95601.88;5104523;28;19954;-71
2023/10/24 01:21:20;;;;;;;;;;;;;;;10.14;100.00;95592.44;5104482;28;19930;-71
2023/10/24 01:23:46;;;;;;;;;;;;;;;10.16;100.00;95589.56;5104471;28;20011;-71
2023/10/24 01:26:14;;;;;;;;;;;;;;;10.15;100.00;95577.53;5104492;28;19942;-71
2023/10/24 01:28:40;;;;;;;;;;;;;;;10.17;100.00;95596.41;5104352;28;19932;-72
2023/10/24 01:31:06;;;;;;;;;;;;;;;10.16;100.00;95582.53;5104392;28;19936;-72
2023/10/24 01:33:31;;;;;;;;;;;;;;;10.17;100.00;95591.19;5105070;28;19955;-72
2023/10/24 01:35:57;;;;;;;;;;;;;;;10.17;100.00;95583.31;5104281;28;19974;-72
2023/10/24 01:38:23;;;;;;;;;;;;;;;10.17;100.00;95604.28;5104272;28;20147;-72
2023/10/24 01:40:49;;;;;;;;;;;;;;;10.16;100.00;95598.25;5104280;28;20141;-72
2023/10/24 01:43:15;;;;;;;;;;;;;;;10.15;100.00;95599.28;5104236;28;20238;-71
2023/10/24 01:45:40;;;;;;;;;;;;;;;10.15;100.00;95601.88;5086245;28;19940;-71
2023/10/24 01:48:06;;;;;;;;;;;;;;;10.14;100.00;95599.50;5104171;28;19979;-71
2023/10/24 01:50:32;;;;;;;;;;;;;;;10.12;100.00;95596.31;5103513;28;19935;-71
2023/10/24 01:52:58;;;;;;;;;;;;;;;10.12;100.00;95598.94;5104889;28;19963;-71
2023/10/24 01:55:24;;;;;;;;;;;;;;;10.11;100.00;95610.47;5104054;28;19934;-71
2023/10/24 01:57:50;;;;;;;;;;;;;;;10.11;100.00;95620.94;5104082;28;19936;-71
2023/10/24 02:00:16;;;;;;;;;;;;;;;10.08;100.00;95619.59;5104023;28;19946;-71
2023/10/24 02:02:42;;;;;;;;;;;;;;;10.07;100.00;95617.97;5104019;28;19969;-72
2023/10/24 02:05:08;;;;;;;;;;;;;;;10.08;100.00;95626.63;5104067;28;20097;-76
2023/10/24 02:07:34;;;;;;;;;;;;;;;10.09;100.00;95625.63;5104773;28;20209;-76
2023/10/24 02:09:59;;;;;;;;;;;;;;;10.09;100.00;95618.53;5103939;28;19947;-76
2023/10/24 02:12:25;;;;;;;;;;;;;;;10.08;100.00;95616.97;5103876;28;19954;-76
2023/10/24 02:14:52;;;;;;;;;;;;;;;10.08;100.00;95614.34;5103957;28;19929;-76
2023/10/24 02:17:17;;;;;;;;;;;;;;;10.08;100.00;95608.28;5103799;28;20297;-76
2023/10/24 02:19:43;;;;;;;;;;;;;;;10.08;100.00;95605.66;5103890;28;19937;-72
2023/10/24 02:22:09;;;;;;;;;;;;;;;10.07;100.00;95604.88;5104423;28;19936;-73
2023/10/24 02:24:36;;;;;;;;;;;;;;;10.05;100.00;95596.47;5106930;28;20144;-76
2023/10/24 02:27:01;;;;;;;;;;;;;;;10.04;100.00;95599.34;5107815;28;19940;-76
2023/10/24 02:29:27;;;;;;;;;;;;;;;10.03;100.00;95595.13;5107751;28;19935;-76
2023/10/24 02:31:53;;;;;;;;;;;;;;;9.98;100.00;95603.69;5107781;28;20218;-76
2023/10/24 02:34:19;;;;;;;;;;;;;;;9.95;100.00;95589.25;5107617;28;20003;-75
2023/10/24 02:36:45;;;;;;;;;;;;;;;9.93;100.00;95604.38;5108421;28;19937;-76
2023/10/24 02:39:11;;;;;;;;;;;;;;;9.90;100.00;95615.31;5107552;28;19935;-80
2023/10/24 02:41:37;;;;;;;;;;;;;;;9.89;100.00;95618.97;5108314;28;19934;-78
2023/10/24 02:44:03;;;;;;;;;;;;;;;9.86;100.00;95600.31;5107991;28;19942;-78
2023/10/24 02:46:29;;;;;;;;;;;;;;;9.84;100.00;95600.53;5107399;28;19970;-79
2023/10/24 02:48:55;;;;;;;;;;;;;;;9.83;100.00;95611.25;5107363;28;19943;-79
2023/10/24 02:51:20;;;;;;;;;;;;;;;9.82;100.00;95620.13;5107839;28;19939;-79
2023/10/24 02:53:46;;;;;;;;;;;;;;;9.81;100.00;95601.00;5106137;28;19956;-79
2023/10/24 02:56:12;;;;;;;;;;;;;;;9.80;100.00;95596.78;5108074;28;19943;-72
2023/10/24 02:58:38;;;;;;;;;;;;;;;9.79;100.00;95607.53;5107143;28;19940;-76
2023/10/24 03:01:04;;;;;;;;;;;;;;;9.76;100.00;95606.13;5107238;28;19933;-79
2023/10/24 03:03:30;;;;;;;;;;;;;;;9.75;100.00;95602.72;5107677;28;20201;-79
2023/10/24 03:05:56;;;;;;;;;;;;;;;9.77;100.00;95583.41;5107095;28;19935;-79
2023/10/24 03:08:22;;;;;;;;;;;;;;;9.77;100.00;95594.66;5107068;28;19940;-80
2023/10/24 03:10:48;;;;;;;;;;;;;;;9.77;100.00;95586.81;5107001;28;19977;-79
2023/10/24 03:13:14;;;;;;;;;;;;;;;9.78;100.00;95592.81;5106916;28;19951;-79
2023/10/24 03:15:41;;;;;;;;;;;;;;;9.79;100.00;95586.56;5106783;28;19973;-73
2023/10/24 03:18:07;;;;;;;;;;;;;;;9.81;100.00;95589.75;5107449;28;20127;-73
2023/10/24 03:20:33;;;;;;;;;;;;;;;9.83;100.00;95582.47;5106776;28;19928;-73
2023/10/24 03:22:58;;;;;;;;;;;;;;;9.83;100.00;95570.16;5106800;28;20126;-72
2023/10/24 03:25:25;;;;;;;;;;;;;;;9.84;100.00;95563.88;5106677;28;19940;-73
2023/10/24 03:27:52;;;;;;;;;;;;;;;9.85;100.00;95552.38;5106722;28;20222;-73
2023/10/24 03:30:18;;;;;;;;;;;;;;;9.86;100.00;95532.22;5106642;28;19957;-73
2023/10/24 03:32:43;;;;;;;;;;;;;;;9.86;100.00;95530.41;5106500;28;19948;-78
2023/10/24 03:35:09;;;;;;;;;;;;;;;9.86;100.00;95517.31;5105495;28;20196;-76
2023/10/24 03:37:35;;;;;;;;;;;;;;;9.87;100.00;95515.47;5107000;28;19937;-71
2023/10/24 03:40:02;;;;;;;;;;;;;;;9.87;100.00;95513.66;5107233;28;19964;-71
2023/10/24 03:42:29;;;;;;;;;;;;;;;9.87;100.00;95511.06;5105312;28;19933;-71
2023/10/24 03:44:55;;;;;;;;;;;;;;;9.88;100.00;95499.53;5107110;28;19936;-72
2023/10/24 03:47:21;;;;;;;;;;;;;;;9.92;100.00;95498.03;5106569;28;19927;-71
2023/10/24 03:49:47;;;;;;;;;;;;;;;9.95;100.00;95492.34;5106815;28;20185;-72
2023/10/24 03:52:13;;;;;;;;;;;;;;;10.01;100.00;95500.25;5106227;28;19957;-70
2023/10/24 03:54:38;;;;;;;;;;;;;;;10.01;100.00;95489.78;5106617;28;20230;-72
2023/10/24 03:57:04;;;;;;;;;;;;;;;10.02;100.00;95500.03;5106082;28;19950;-72
2023/10/24 03:59:31;;;;;;;;;;;;;;;10.07;100.00;95513.19;5106580;28;19936;-73
2023/10/24 04:01:56;;;;;;;;;;;;;;;10.10;100.00;95517.16;5106792;28;20163;-73
2023/10/24 04:04:22;;;;;;;;;;;;;;;10.09;100.00;95511.13;5105944;28;19939;-73
2023/10/24 04:06:48;;;;;;;;;;;;;;;10.06;100.00;95516.88;5105874;28;19934;-73
2023/10/24 04:09:14;;;;;;;;;;;;;;;10.04;100.00;95523.38;5106645;28;19937;-73
2023/10/24 04:11:40;;;;;;;;;;;;;;;9.99;100.00;95525.91;5105847;28;19953;-73
2023/10/24 04:14:06;;;;;;;;;;;;;;;9.94;100.00;95540.50;5106209;28;19957;-72
2023/10/24 04:16:32;;;;;;;;;;;;;;;9.90;100.00;95539.38;5105608;28;19969;-72
2023/10/24 04:18:58;;;;;;;;;;;;;;;9.88;100.00;95548.50;5106197;28;19942;-72
2023/10/24 04:21:24;;;;;;;;;;;;;;;9.83;100.00;95554.44;5105626;28;20218;-72
2023/10/24 04:23:50;;;;;;;;;;;;;;;9.81;100.00;95543.41;5105905;28;19938;-72
2023/10/24 04:26:16;;;;;;;;;;;;;;;9.81;100.00;95538.19;5105521;28;19937;-71
2023/10/24 04:28:42;;;;;;;;;;;;;;;9.82;100.00;95531.91;5106044;28;19930;-78
2023/10/24 04:31:08;;;;;;;;;;;;;;;9.82;100.00;95538.97;5106283;28;19937;-77
2023/10/24 04:33:34;;;;;;;;;;;;;;;9.81;100.00;95526.91;5105269;28;19975;-77
2023/10/24 04:36:00;;;;;;;;;;;;;;;9.81;100.00;95519.84;5104938;28;19949;-76
2023/10/24 04:38:25;;;;;;;;;;;;;;;9.82;100.00;95508.34;5104187;28;19969;-77
2023/10/24 04:40:51;;;;;;;;;;;;;;;9.84;100.00;95500.25;5104924;28;19940;-77
2023/10/24 04:43:17;;;;;;;;;;;;;;;9.85;100.00;95497.41;5105233;28;19999;-77
2023/10/24 04:45:43;;;;;;;;;;;;;;;9.87;100.00;95507.63;5104029;28;19937;-77
2023/10/24 04:48:09;;;;;;;;;;;;;;;9.87;100.00;95508.44;5104920;28;19975;-78
2023/10/24 04:50:36;;;;;;;;;;;;;;;9.88;100.00;95509.22;5105096;28;19974;-72
2023/10/24 04:53:03;;;;;;;;;;;;;;;9.89;100.00;95516.84;5105209;28;19960;-73
2023/10/24 04:55:29;;;;;;;;;;;;;;;9.89;100.00;95500.31;5104392;28;20206;-73
2023/10/24 04:57:54;;;;;;;;;;;;;;;9.90;100.00;95501.94;5105460;28;19929;-73
2023/10/24 05:00:20;;;;;;;;;;;;;;;9.89;100.00;95495.91;5104928;28;19935;-72
2023/10/24 05:02:46;;;;;;;;;;;;;;;9.91;100.00;95495.63;5104828;28;20242;-72
2023/10/24 05:05:12;;;;;;;;;;;;;;;9.92;100.00;95489.38;5104809;28;20191;-76
2023/10/24 05:07:38;;;;;;;;;;;;;;;9.91;100.00;95482.53;5105561;28;19946;-76
2023/10/24 05:10:04;;;;;;;;;;;;;;;9.91;100.00;95493.03;5105230;28;20212;-73
2023/10/24 05:12:30;;;;;;;;;;;;;;;9.92;100.00;95489.38;5104624;28;19950;-73
2023/10/24 05:14:56;;;;;;;;;;;;;;;9.92;100.00;95474.47;5104698;28;19942;-73
2023/10/24 05:17:22;;;;;;;;;;;;;;;9.92;100.00;95471.84;5104455;28;19989;-73
2023/10/24 05:19:47;;;;;;;;;;;;;;;9.92;100.00;95461.38;5104567;28;20161;-73
2023/10/24 05:22:14;;;;;;;;;;;;;;;9.93;100.00;95459.53;5105004;28;19962;-73
2023/10/24 05:24:40;;;;;;;;;;;;;;;9.94;100.00;95458.53;5104465;28;20220;-78
2023/10/24 05:27:06;;;;;;;;;;;;;;;9.93;100.00;95457.72;5104499;28;19936;-70
2023/10/24 05:29:32;;;;;;;;;;;;;;;9.93;100.00;95454.28;5104460;28;19940;-70
2023/10/24 05:31:58;;;;;;;;;;;;;;;9.93;100.00;95451.69;5104416;28;19946;-70
2023/10/24 05:34:27;;;;;;;;;;;;;;;9.91;100.00;95446.69;5104228;28;19962;-71
2023/10/24 05:36:53;;;;;;;;;;;;;;;9.91;100.00;95446.69;5104334;28;19941;-70
2023/10/24 05:39:19;;;;;;;;;;;;;;;9.92;100.00;95453.50;5104279;28;19937;-70
2023/10/24 05:41:46;;;;;;;;;;;;;;;9.92;100.00;95450.88;5105023;28;19947;-78
2023/10/24 05:44:12;;;;;;;;;;;;;;;9.94;100.00;95446.22;5105084;28;20131;-77
2023/10/24 05:46:37;;;;;;;;;;;;;;;9.95;100.00;95457.47;5103156;28;19940;-77
2023/10/24 05:49:03;;;;;;;;;;;;;;;9.94;100.00;95456.69;5104229;28;20003;-77
2023/10/24 05:51:29;;;;;;;;;;;;;;;9.94;100.00;95450.66;5104125;28;19985;-76
2023/10/24 05:53:56;;;;;;;;;;;;;;;9.94;100.00;95451.44;5104070;28;19954;-77
2023/10/24 05:56:22;;;;;;;;;;;;;;;9.93;100.00;95447.25;5103829;28;19937;-77
2023/10/24 05:58:47;;;;;;;;;;;;;;;9.94;100.00;95450.66;5104363;28;19942;-77
2023/10/24 06:01:13;;;;;;;;;;;;;;;9.93;100.00;95455.13;5107327;28;19966;-78
2023/10/24 06:03:39;;;;;;;;;;;;;;;9.95;100.00;95447.00;5108270;28;19944;-77
2023/10/24 06:06:05;;;;;;;;;;;;;;;9.95;100.00;95449.63;5108618;28;20122;-77
2023/10/24 06:08:31;;;;;;;;;;;;;;;9.96;100.00;95459.06;5107930;28;19933;-78
2023/10/24 06:10:58;;;;;;;;;;;;;;;9.95;100.00;95463.53;5107785;28;20203;-77
2023/10/24 06:13:24;;;;;;;;;;;;;;;9.97;100.00;95476.38;5108082;28;19954;-77
2023/10/24 06:15:50;;;;;;;;;;;;;;;9.95;100.00;95474.00;5108431;28;19965;-77
2023/10/24 06:18:17;;;;;;;;;;;;;;;9.97;100.00;95473.75;5107637;28;19943;-77
2023/10/24 06:20:42;;;;;;;;;;;;;;;9.99;100.00;95476.13;5106788;28;19942;-78
2023/10/24 06:23:10;;;;;;;;;;;;;;;10.00;100.00;95483.75;5108436;28;19935;-70
2023/10/24 06:25:36;;;;;;;;;;;;;;;10.02;100.00;95488.78;5107879;28;19936;-70
2023/10/24 06:28:02;;;;;;;;;;;;;;;10.03;100.00;95482.50;5108369;28;19935;-69
2023/10/24 06:30:28;;;;;;;;;;;;;;;10.03;100.00;95491.13;5108269;28;19935;-70
2023/10/24 06:32:54;;;;;;;;;;;;;;;10.03;100.00;95492.97;5106564;28;19949;-70
2023/10/24 06:35:20;;;;;;;;;;;;;;;10.03;100.00;95491.13;5107630;28;19955;-70
2023/10/24 06:37:46;;;;;;;;;;;;;;;10.02;100.00;95484.31;5108139;28;19931;-72
2023/10/24 06:40:12;;;;;;;;;;;;;;;10.00;100.00;95481.13;5107586;28;19942;-76
2023/10/24 06:42:38;;;;;;;;;;;;;;;10.02;100.00;95479.09;5107527;28;19939;-76
2023/10/24 06:45:04;;;;;;;;;;;;;;;10.04;100.00;95473.63;5107518;28;20007;-76
2023/10/24 06:47:30;;;;;;;;;;;;;;;10.06;100.00;95468.94;5107409;28;19935;-76
2023/10/24 06:49:56;;;;;;;;;;;;;;;10.08;100.00;95466.84;5107397;28;19933;-76
2023/10/24 06:52:22;;;;;;;;;;;;;;;10.10;100.00;95464.78;5107335;28;19944;-76
2023/10/24 06:54:48;;;;;;;;;;;;;;;10.10;100.00;95470.00;5107225;28;19951;-74
2023/10/24 06:57:14;;;;;;;;;;;;;;;10.12;100.00;95467.94;5107303;28;19934;-76
2023/10/24 06:59:39;;;;;;;;;;;;;;;10.12;100.00;95463.53;5106074;28;20141;-73
2023/10/24 07:02:05;;;;;;;;;;;;;;;10.13;100.00;95454.63;5108004;28;19927;-72
2023/10/24 07:04:31;;;;;;;;;;;;;;;10.16;100.00;95453.34;5107127;28;19938;-73
2023/10/24 07:06:57;;;;;;;;;;;;;;;10.18;100.00;95471.44;5107157;28;19942;-72
2023/10/24 07:09:23;;;;;;;;;;;;;;;10.19;100.00;95475.69;5107063;28;19941;-73
2023/10/24 07:11:49;;;;;;;;;;;;;;;10.19;100.00;95471.22;5107531;28;19943;-72
2023/10/24 07:14:15;;;;;;;;;;;;;;;10.21;100.00;95469.16;5107429;28;19956;-70
2023/10/24 07:16:41;;;;;;;;;;;;;;;10.21;100.00;95466.53;5106833;28;19962;-73
2023/10/24 07:19:06;;;;;;;;;;;;;;;10.21;100.00;95474.41;5107402;28;19987;-77
2023/10/24 07:21:32;;;;;;;;;;;;;;;10.22;100.00;95483.03;5106855;28;19936;-78
2023/10/24 07:23:58;;;;;;;;;;;;;;;10.22;100.00;95486.44;5106808;28;19939;-77
2023/10/24 07:26:24;;;;;;;;;;;;;;;10.22;100.00;95496.16;5106773;28;20105;-77
2023/10/24 07:28:50;;;;;;;;;;;;;;;10.23;100.00;95498.53;5107172;28;19939;-77
2023/10/24 07:31:16;;;;;;;;;;;;;;;10.23;100.00;95490.66;5107173;28;19929;-77
2023/10/24 07:33:42;;;;;;;;;;;;;;;10.24;100.00;95488.84;5106488;28;19951;-75
2023/10/24 07:36:08;;;;;;;;;;;;;;;10.27;100.00;95488.38;5106525;28;19948;-70
2023/10/24 07:38:34;;;;;;;;;;;;;;;10.29;100.00;95489.75;5106475;28;19936;-70
2023/10/24 07:41:01;;;;;;;;;;;;;;;10.32;100.00;95480.59;5107018;28;19941;-70
2023/10/24 07:43:27;;;;;;;;;;;;;;;10.34;100.00;95495.06;5106365;28;19931;-71
2023/10/24 07:45:53;;;;;;;;;;;;;;;10.39;100.00;95504.03;5106346;28;19957;-70
2023/10/24 07:48:20;;;;;;;;;;;;;;;10.40;100.00;95501.19;5106290;28;19937;-70
2023/10/24 07:50:52;;;;;;;;;;;;;;;10.41;100.00;95491.47;5106185;28;19931;-71
2023/10/24 07:53:19;;;;;;;;;;;;;;;10.42;100.00;95499.09;5106891;28;19971;-70
2023/10/24 07:55:45;;;;;;;;;;;;;;;10.42;100.00;95496.47;5106884;28;19934;-72
2023/10/24 07:58:11;;;;;;;;;;;;;;;10.44;100.00;95497.03;5106057;28;19938;-71
2023/10/24 08:00:36;;;;;;;;;;;;;;;10.44;100.00;95494.41;5105248;28;19960;-72
2023/10/24 08:03:02;;;;;;;;;;;;;;;10.43;100.00;95505.91;5105937;28;20220;-71
2023/10/24 08:05:28;;;;;;;;;;;;;;;10.44;100.00;95511.97;5105846;28;19979;-72
2023/10/24 08:07:54;;;;;;;;;;;;;;;10.41;100.00;95505.38;5105797;28;20251;-71
2023/10/24 08:10:20;;;;;;;;;;;;;;;10.41;100.00;95507.19;5105831;28;19936;-76
2023/10/24 08:12:45;;;;;;;;;;;;;;;10.43;100.00;95499.88;5105647;28;19932;-76
2023/10/24 08:15:11;;;;;;;;;;;;;;;10.45;100.00;95495.22;5105732;28;19935;-76
2023/10/24 08:17:37;;;;;;;;;;;;;;;10.47;100.00;95493.94;5105451;28;20033;-77
2023/10/24 08:20:04;;;;;;;;;;;;;;;10.48;100.00;95494.75;5105573;28;20125;-76
2023/10/24 08:22:31;;;;;;;;;;;;;;;10.50;100.00;95490.06;5105254;28;19982;-77
2023/10/24 08:24:57;;;;;;;;;;;;;;;10.48;100.00;95490.28;5106074;28;19940;-76
2023/10/24 08:27:23;;;;;;;;;;;;;;;10.50;100.00;95488.22;5105494;28;19936;-74
2023/10/24 08:29:49;;;;;;;;;;;;;;;10.50;100.00;95493.47;5106247;28;19940;-69
2023/10/24 08:32:15;;;;;;;;;;;;;;;10.51;100.00;95495.03;5105450;28;19940;-73
2023/10/24 08:34:41;;;;;;;;;;;;;;;10.52;100.00;95493.19;5104408;28;20259;-73
2023/10/24 08:37:07;;;;;;;;;;;;;;;10.55;100.00;95498.75;5105325;28;19934;-72
2023/10/24 08:39:33;;;;;;;;;;;;;;;10.59;100.00;95491.22;5105255;28;20214;-72
2023/10/24 08:41:59;;;;;;;;;;;;;;;10.62;100.00;95485.47;5105213;28;19941;-73
2023/10/24 08:44:26;;;;;;;;;;;;;;;10.68;100.00;95496.84;5105178;28;19927;-73
2023/10/24 08:46:52;;;;;;;;;;;;;;;10.72;100.00;95482.22;5105932;28;19935;-76
2023/10/24 08:49:18;;;;;;;;;;;;;;;10.75;100.00;95474.66;5105105;28;20219;-75
2023/10/24 08:51:45;;;;;;;;;;;;;;;10.81;100.00;95472.09;5104970;28;19932;-75
2023/10/24 08:54:11;;;;;;;;;;;;;;;10.85;100.00;95465.31;5105442;28;19959;-75
2023/10/24 08:56:38;;;;;;;;;;;;;;;10.88;100.00;95467.47;5104932;28;19942;-76
2023/10/24 08:59:13;;;;;;;;;;;;;;;10.92;100.00;95468.59;5104924;28;19938;-75
2023/10/24 09:01:40;;;;;;;;;;;;;;;10.95;100.00;95476.75;5105422;28;19930;-75
2023/10/24 09:04:06;;;;;;;;;;;;;;;10.99;100.00;95487.53;5105117;28;19934;-79
2023/10/24 09:06:33;;;;;;;;;;;;;;;11.01;100.00;95474.97;5104825;28;19935;-76
2023/10/24 09:08:59;;;;;;;;;;;;;;;11.06;100.00;95480.28;5105547;28;19944;-80
2023/10/24 09:11:24;;;;;;;;;;;;;;;11.09;100.00;95489.50;5104735;28;19939;-80
2023/10/24 09:13:51;;;;;;;;;;;;;;;11.12;100.00;95481.13;5104604;28;19960;-80
2023/10/24 09:16:17;;;;;;;;;;;;;;;11.15;100.00;95484.06;5103436;28;20148;-80
2023/10/24 09:18:43;;;;;;;;;;;;;;;11.20;100.00;95487.78;5104535;28;19935;-80
2023/10/24 09:21:09;;;;;;;;;;;;;;;11.24;100.00;95489.69;5104591;28;19946;-80
2023/10/24 09:23:35;;;;;;;;;;;;;;;11.29;100.00;95488.94;5104781;28;19941;-70
2023/10/24 09:26:11;;;;;;;;;;;;;;;11.31;100.00;95500.78;5104518;28;19943;-70
2023/10/24 09:28:37;;;;;;;;;;;;;;;11.33;100.00;95495.28;5104435;28;19938;-70
2023/10/24 09:31:04;;;;;;;;;;;;;;;11.34;100.00;95507.38;5104401;28;20248;-70
2023/10/24 09:33:30;;;;;;;;;;;;;;;11.34;100.00;95508.16;5103442;28;19964;-69
2023/10/24 09:35:56;;;;;;;;;;;;;;;11.33;100.00;95511.81;5104242;28;19951;-70
2023/10/24 09:38:23;;;;;;;;;;;;;;;11.31;100.00;95513.91;5103905;28;19960;-70
2023/10/24 09:40:49;;;;;;;;;;;;;;;11.31;100.00;95518.34;5105057;28;19939;-79
2023/10/24 09:43:27;;;;;;;;;;;;;;;11.29;100.00;95520.44;5104223;28;19939;-71
2023/10/24 09:45:53;;;;;;;;;;;;;;;11.28;100.00;95513.63;5105055;28;19928;-72
2023/10/24 09:48:19;;;;;;;;;;;;;;;11.27;100.00;95506.75;5103808;28;19939;-73
2023/10/24 09:50:46;;;;;;;;;;;;;;;11.28;100.00;95505.75;5104138;28;19936;-72
2023/10/24 09:53:12;;;;;;;;;;;;;;;11.28;100.00;95508.38;5104840;28;19931;-72
2023/10/24 09:55:40;;;;;;;;;;;;;;;11.27;100.00;95499.69;5104607;28;19943;-73
2023/10/24 09:58:07;;;;;;;;;;;;;;;11.29;100.00;95502.84;5104585;28;19943;-72
2023/10/24 10:00:33;;;;;;;;;;;;;;;11.33;100.00;95495.28;5104051;28;19941;-71
2023/10/24 10:02:59;;;;;;;;;;;;;;;11.35;100.00;95490.59;5104067;28;20118;-72
2023/10/24 10:05:29;;;;;;;;;;;;;;;11.37;100.00;95491.91;5104564;28;19942;-71
2023/10/24 10:07:56;;;;;;;;;;;;;;;11.38;100.00;95487.44;5104023;28;19934;-71
2023/10/24 10:10:23;;;;;;;;;;;;;;;11.41;100.00;95486.19;5103952;28;20113;-71
2023/10/24 10:12:51;;;;;;;;;;;;;;;11.41;100.00;95479.09;5104464;28;19961;-71
2023/10/24 10:15:37;;;;;;;;;;;;;;;11.42;100.00;95477.25;5103683;28;19951;-71
2023/10/24 10:18:03;;;;;;;;;;;;;;;11.43;100.00;95477.03;5104443;28;19957;-77
2023/10/24 10:20:42;;;;;;;;;;;;;;;11.44;100.00;95481.22;5103862;28;19950;-76
2023/10/24 10:23:27;;;;;;;;;;;;;;;11.44;100.00;95475.19;5104404;28;19935;-76
2023/10/24 10:25:53;;;;;;;;;;;;;;;11.43;100.00;95469.16;5104585;28;19954;-76
2023/10/24 10:28:37;;;;;;;;;;;;;;;11.44;100.00;95462.06;5103862;28;19971;-76
2023/10/24 10:31:21;;;;;;;;;;;;;;;11.43;100.00;95463.91;5103758;28;19930;-76
2023/10/24 10:33:47;;;;;;;;;;;;;;;11.42;100.00;95456.25;5103695;28;19946;-76
2023/10/24 10:36:13;;;;;;;;;;;;;;;11.42;100.00;95454.41;5103751;28;20261;-72
2023/10/24 10:38:46;;;;;;;;;;;;;;;11.42;100.00;95451.78;5103700;28;19935;-73
2023/10/24 10:41:26;;;;;;;;;;;;;;;11.42;100.00;95451.78;5103644;28;19934;-71
2023/10/24 10:43:58;;;;;;;;;;;;;;;11.44;100.00;95446.31;5104239;28;19933;-71
2023/10/24 10:46:28;;;;;;;;;;;;;;;11.43;100.00;95440.28;5107422;28;19936;-72
2023/10/24 10:49:06;;;;;;;;;;;;;;;11.46;100.00;95450.25;5107964;28;20227;-72
2023/10/24 10:51:33;;;;;;;;;;;;;;;11.47;100.00;95441.38;5106294;28;19946;-72
2023/10/24 10:54:02;;;;;;;;;;;;;;;11.47;100.00;95444.00;5107832;28;19955;-71
2023/10/24 10:56:32;;;;;;;;;;;;;;;11.45;100.00;95443.44;5108178;28;20124;-73
2023/10/24 10:59:04;;;;;;;;;;;;;;;11.45;100.00;95440.81;5108068;28;20218;-75
2023/10/24 11:01:38;;;;;;;;;;;;;;;11.46;100.00;95437.13;5107171;28;19942;-76
2023/10/24 11:04:11;;;;;;;;;;;;;;;11.46;100.00;95445.00;5107210;28;19929;-76
2023/10/24 11:06:37;;;;;;;;;;;;;;;11.46;100.00;95450.25;5107116;28;19943;-76
2023/10/24 11:09:10;;;;;;;;;;;;;;;11.45;100.00;95451.31;5107104;28;19934;-77
2023/10/24 11:11:37;;;;;;;;;;;;;;;11.46;100.00;95441.59;5107508;28;19942;-77
2023/10/24 11:14:13;;;;;;;;;;;;;;;11.47;100.00;95448.44;5107775;28;19952;-76
2023/10/24 11:16:40;;;;;;;;;;;;;;;11.48;100.00;95442.16;5106793;28;19959;-76
2023/10/24 11:19:06;;;;;;;;;;;;;;;11.49;100.00;95444.53;5107634;28;19944;-77
2023/10/24 11:21:32;;;;;;;;;;;;;;;11.51;100.00;95445.06;5107338;28;19931;-76
2023/10/24 11:23:59;;;;;;;;;;;;;;;11.53;100.00;95436.97;5106791;28;19933;-76
2023/10/24 11:26:25;;;;;;;;;;;;;;;11.53;100.00;95443.00;5106723;28;19954;-77
2023/10/24 11:28:51;;;;;;;;;;;;;;;11.52;100.00;95438.00;5106650;28;19930;-76
2023/10/24 11:31:19;;;;;;;;;;;;;;;11.52;100.00;95432.75;5106674;28;19935;-77
2023/10/24 11:33:44;;;;;;;;;;;;;;;11.52;100.00;95427.50;5106841;28;20126;-73
2023/10/24 11:36:10;;;;;;;;;;;;;;;11.53;100.00;95421.22;5107290;28;19958;-78
2023/10/24 11:38:36;;;;;;;;;;;;;;;11.55;100.00;95413.88;5105409;28;19967;-79
2023/10/24 11:41:02;;;;;;;;;;;;;;;11.56;100.00;95410.97;5106090;28;19943;-79
2023/10/24 11:43:29;;;;;;;;;;;;;;;11.58;100.00;95405.50;5107201;28;20201;-78
2023/10/24 11:45:55;;;;;;;;;;;;;;;11.62;100.00;95403.16;5106321;28;19930;-79
2023/10/24 11:48:21;;;;;;;;;;;;;;;11.63;100.00;95394.22;5106001;28;19938;-79
2023/10/24 11:50:47;;;;;;;;;;;;;;;11.63;100.00;95389.75;5106292;28;19934;-72
2023/10/24 11:53:20;;;;;;;;;;;;;;;11.60;100.00;95390.28;5107045;28;19937;-71
2023/10/24 11:55:47;;;;;;;;;;;;;;;11.61;100.00;95389.22;5105486;28;19948;-72
2023/10/24 11:58:13;;;;;;;;;;;;;;;11.61;100.00;95398.94;5104727;28;20238;-71
2023/10/24 12:00:41;;;;;;;;;;;;;;;11.64;100.00;95396.63;5106072;28;19940;-72
2023/10/24 12:03:07;;;;;;;;;;;;;;;11.65;100.00;95390.31;5106628;28;19937;-72
2023/10/24 12:05:33;;;;;;;;;;;;;;;11.68;100.00;95389.03;5105962;28;19931;-72
2023/10/24 12:08:00;;;;;;;;;;;;;;;11.70;100.00;95395.63;5105960;28;20224;-69
2023/10/24 12:10:26;;;;;;;;;;;;;;;11.72;100.00;95395.38;5106700;28;20233;-72
2023/10/24 12:12:56;;;;;;;;;;;;;;;11.72;100.00;95392.75;5105806;28;19936;-71
2023/10/24 12:15:22;;;;;;;;;;;;;;;11.72;100.00;95393.53;5105797;28;20116;-72
2023/10/24 12:17:48;;;;;;;;;;;;;;;11.71;100.00;95391.94;5106240;28;19983;-72
2023/10/24 12:20:14;;;;;;;;;;;;;;;11.72;100.00;95390.13;5105711;28;19940;-72
2023/10/24 12:22:43;;;;;;;;;;;;;;;11.72;100.00;95388.28;5106387;28;19969;-72
2023/10/24 12:25:08;;;;;;;;;;;;;;;11.73;100.00;95386.44;5105208;28;19940;-72
2023/10/24 12:27:35;;;;;;;;;;;;;;;11.74;100.00;95382.78;5105490;28;19930;-72
2023/10/24 12:30:02;;;;;;;;;;;;;;;11.73;100.00;95381.19;5104463;28;20162;-73
2023/10/24 12:32:28;;;;;;;;;;;;;;;11.70;100.00;95385.13;5105477;28;20125;-72
2023/10/24 12:34:54;;;;;;;;;;;;;;;11.68;100.00;95387.19;5106046;28;20001;-71
2023/10/24 12:37:20;;;;;;;;;;;;;;;11.67;100.00;95384.81;5105368;28;19943;-72